Time;durP1;ratioP1;P1;durP2;ratioP2;P2;SDS_P1;SDS_P2;PMS_P1;PMS_P2;Temp;Humidity;BMP_temperature;BMP_pressure;BME280_temperature;BME280_humidity;BME280_pressure;Samples;Min_cycle;Max_cycle;Signal;HPM_P1;HPM_P2
2022/03/12 00:01:17;;;;;;;11.52;10.55;;;;;;;-0.88;51.77;95751.50;5100233;28;20203;-68
2022/03/12 00:03:45;;;;;;;11.27;10.38;;;;;;;-0.90;51.34;95759.09;5118232;28;20188;-68
2022/03/12 00:06:12;;;;;;;11.70;10.70;;;;;;;-0.92;51.63;95764.75;5118071;28;20215;-68
2022/03/12 00:08:42;;;;;;;11.23;10.32;;;;;;;-0.90;51.32;95759.91;5118091;28;20194;-68
2022/03/12 00:11:13;;;;;;;11.07;10.27;;;;;;;-0.94;51.72;95757.97;5099977;28;20202;-68
2022/03/12 00:13:40;;;;;;;12.20;11.23;;;;;;;-0.97;52.06;95757.44;5100023;28;20200;-68
2022/03/12 00:16:13;;;;;;;12.52;11.43;;;;;;;-0.91;51.94;95760.97;5100250;28;20180;-68
2022/03/12 00:18:42;;;;;;;12.05;11.05;;;;;;;-0.92;52.26;95764.75;5099650;28;20184;-68
2022/03/12 00:21:11;;;;;;;14.25;12.95;;;;;;;-0.85;52.41;95768.03;5099848;28;20199;-68
2022/03/12 00:23:38;;;;;;;14.20;12.98;;;;;;;-0.82;52.18;95759.41;5099774;28;20223;-69
2022/03/12 00:26:06;;;;;;;13.45;12.35;;;;;;;-0.82;52.46;95764.81;5117500;28;20230;-68
2022/03/12 00:28:32;;;;;;;13.70;12.57;;;;;;;-0.87;53.39;95772.09;5117755;28;20176;-68
2022/03/12 00:30:59;;;;;;;14.10;12.80;;;;;;;-0.89;53.62;95766.13;5117672;28;20215;-69
2022/03/12 00:33:27;;;;;;;16.90;15.30;;;;;;;-0.91;55.26;95769.09;5117561;28;20188;-68
2022/03/12 00:35:55;;;;;;;16.58;14.98;;;;;;;-0.89;55.75;95772.38;5099711;28;20222;-69
2022/03/12 00:38:22;;;;;;;15.07;13.73;;;;;;;-0.89;55.46;95768.84;5117281;28;20271;-69
2022/03/12 00:40:50;;;;;;;14.57;13.27;;;;;;;-0.93;55.51;95773.16;5099819;28;20203;-69
2022/03/12 00:43:18;;;;;;;15.50;14.10;;;;;;;-1.00;56.42;95774.19;5099234;28;20236;-68
2022/03/12 00:45:46;;;;;;;17.00;15.50;;;;;;;-1.06;57.20;95763.59;5117446;28;20203;-68
2022/03/12 00:48:13;;;;;;;17.45;15.85;;;;;;;-1.10;57.35;95774.13;5117478;28;20194;-68
2022/03/12 00:50:39;;;;;;;18.92;17.20;;;;;;;-1.21;58.91;95769.75;5117542;28;20188;-68
2022/03/12 00:53:08;;;;;;;19.10;17.40;;;;;;;-1.23;59.75;95767.31;5117110;28;20199;-67
2022/03/12 00:55:35;;;;;;;18.55;16.83;;;;;;;-1.26;61.15;95767.81;5117377;28;20199;-68
2022/03/12 00:58:02;;;;;;;19.88;18.13;;;;;;;-1.31;62.19;95775.94;5117515;28;20240;-68
2022/03/12 01:00:29;;;;;;;19.10;17.27;;;;;;;-1.33;62.84;95774.56;5117171;28;20176;-68
2022/03/12 01:02:55;;;;;;;13.15;11.98;;;;;;;-1.34;62.14;95779.16;5099328;28;20199;-68
2022/03/12 01:05:24;;;;;;;12.75;11.73;;;;;;;-1.39;62.76;95781.00;5116930;28;20195;-67
2022/03/12 01:07:51;;;;;;;8.73;8.02;;;;;;;-1.54;62.65;95779.81;5098252;28;20217;-67
2022/03/12 01:10:20;;;;;;;9.20;8.50;;;;;;;-1.54;63.07;95768.16;5099185;28;20200;-67
2022/03/12 01:12:46;;;;;;;9.07;8.38;;;;;;;-1.62;63.08;95777.59;5098952;28;20203;-68
2022/03/12 01:15:13;;;;;;;8.52;7.82;;;;;;;-1.66;62.97;95778.38;5098749;28;20200;-68
2022/03/12 01:17:41;;;;;;;8.00;7.35;;;;;;;-1.62;63.41;95776.78;5099349;28;20200;-68
2022/03/12 01:20:10;;;;;;;7.90;7.30;;;;;;;-1.68;63.41;95783.22;5099112;28;20196;-68
2022/03/12 01:22:37;;;;;;;8.50;7.70;;;;;;;-1.65;63.09;95786.22;5116619;28;20191;-68
2022/03/12 01:25:05;;;;;;;7.95;7.25;;;;;;;-1.70;63.39;95788.88;5098779;28;20223;-68
2022/03/12 01:27:34;;;;;;;8.68;7.97;;;;;;;-1.76;63.93;95779.91;5098633;28;20212;-68
2022/03/12 01:30:01;;;;;;;6.70;6.20;;;;;;;-1.73;63.55;95782.09;5116443;28;20179;-68
2022/03/12 01:32:28;;;;;;;7.30;6.70;;;;;;;-1.75;63.38;95786.13;5116481;28;20184;-68
2022/03/12 01:34:54;;;;;;;7.22;6.63;;;;;;;-1.82;63.16;95786.34;5098504;28;20199;-68
2022/03/12 01:37:21;;;;;;;6.80;6.20;;;;;;;-1.94;63.04;95780.28;5098386;28;20508;-68
2022/03/12 01:39:48;;;;;;;5.85;5.28;;;;;;;-1.95;61.86;95778.66;5098130;28;20202;-68
2022/03/12 01:42:16;;;;;;;5.53;4.93;;;;;;;-1.95;61.70;95782.19;5116436;28;20205;-68
2022/03/12 01:44:44;;;;;;;6.03;5.50;;;;;;;-2.04;62.18;95780.19;5097597;28;20247;-68
2022/03/12 01:47:11;;;;;;;6.10;5.60;;;;;;;-2.07;62.78;95769.88;5077587;28;20230;-68
2022/03/12 01:49:39;;;;;;;6.03;5.43;;;;;;;-2.10;63.04;95768.53;5078282;28;20210;-68
2022/03/12 01:52:07;;;;;;;5.72;5.22;;;;;;;-2.15;63.17;95773.06;5095322;28;20594;-68
2022/03/12 01:54:34;;;;;;;5.90;5.40;;;;;;;-2.22;63.11;95770.56;5095746;28;20192;-68
2022/03/12 01:57:02;;;;;;;5.55;5.05;;;;;;;-2.26;63.31;95778.34;5095476;28;20195;-68
2022/03/12 01:59:28;;;;;;;5.45;4.97;;;;;;;-2.26;63.59;95769.44;5095566;28;20223;-68
2022/03/12 02:01:57;;;;;;;6.05;5.47;;;;;;;-2.19;63.83;95775.44;5077594;28;20195;-68
2022/03/12 02:04:25;;;;;;;5.15;4.75;;;;;;;-2.17;63.58;95770.63;5095481;28;20184;-68
2022/03/12 02:06:52;;;;;;;5.43;5.03;;;;;;;-2.12;63.76;95769.84;5077431;28;20208;-68
2022/03/12 02:09:22;;;;;;;5.57;5.18;;;;;;;-2.06;63.80;95779.66;5077851;28;20519;-68
2022/03/12 02:11:51;;;;;;;5.38;4.97;;;;;;;-2.05;63.95;95779.38;5095052;28;20593;-68
2022/03/12 02:14:19;;;;;;;5.65;5.25;;;;;;;-2.02;64.26;95768.06;5095110;28;20184;-68
2022/03/12 02:16:49;;;;;;;5.70;5.30;;;;;;;-1.98;64.81;95769.16;5095133;28;20180;-68
2022/03/12 02:19:18;;;;;;;6.35;5.80;;;;;;;-1.89;64.34;95769.50;5095096;28;20185;-68
2022/03/12 02:21:51;;;;;;;6.20;5.80;;;;;;;-1.87;64.19;95770.06;5078238;28;20207;-68
2022/03/12 02:24:21;;;;;;;6.20;5.72;;;;;;;-1.90;63.86;95767.06;5077481;28;20204;-68
2022/03/12 02:26:48;;;;;;;6.10;5.70;;;;;;;-1.85;63.99;95772.50;5094745;28;20529;-68
2022/03/12 02:29:19;;;;;;;6.30;5.80;;;;;;;-1.83;63.61;95775.78;5095310;28;20195;-68
2022/03/12 02:31:56;;;;;;;6.70;6.20;;;;;;;-1.91;63.66;95779.78;5078063;28;20204;-68
2022/03/12 02:34:26;;;;;;;6.40;5.90;;;;;;;-1.92;63.50;95777.31;5094901;28;20196;-68
2022/03/12 02:36:56;;;;;;;6.68;6.18;;;;;;;-1.88;63.50;95778.47;5095157;28;20200;-68
2022/03/12 02:39:27;;;;;;;7.25;6.65;;;;;;;-1.91;64.12;95779.78;5095287;28;20195;-68
2022/03/12 02:41:55;;;;;;;7.30;6.80;;;;;;;-1.94;64.36;95777.59;5095196;28;20291;-68
2022/03/12 02:44:24;;;;;;;7.38;6.78;;;;;;;-1.97;63.53;95780.78;5092266;28;20644;-68
2022/03/12 02:47:13;;;;;;;6.53;6.03;;;;;;;-2.03;63.63;95785.34;5097845;28;20216;-68
2022/03/12 02:49:43;;;;;;;7.03;6.53;;;;;;;-2.04;63.79;95788.28;5097830;28;20198;-68
2022/03/12 02:52:10;;;;;;;7.70;7.10;;;;;;;-2.08;63.73;95788.00;5115409;28;20219;-68
2022/03/12 02:54:38;;;;;;;7.28;6.68;;;;;;;-2.09;63.76;95789.06;5115345;28;20192;-68
2022/03/12 02:57:05;;;;;;;6.85;6.35;;;;;;;-2.15;63.97;95789.28;5097619;28;20206;-68
2022/03/12 02:59:33;;;;;;;7.35;6.78;;;;;;;-2.11;63.97;95799.31;5115285;28;20188;-68
2022/03/12 03:02:03;;;;;;;7.20;6.60;;;;;;;-2.16;63.91;95793.88;5115296;28;20237;-68
2022/03/12 03:04:35;;;;;;;7.05;6.55;;;;;;;-2.19;64.04;95792.47;5097761;28;20257;-68
2022/03/12 03:07:03;;;;;;;7.57;6.95;;;;;;;-2.13;63.96;95798.75;5097786;28;20310;-68
2022/03/12 03:09:29;;;;;;;7.57;6.97;;;;;;;-2.12;64.46;95802.28;5097346;28;20192;-68
2022/03/12 03:12:02;;;;;;;6.75;6.25;;;;;;;-2.05;64.61;95800.19;5115345;28;20200;-68
2022/03/12 03:14:29;;;;;;;6.70;6.20;;;;;;;-2.01;64.53;95804.00;5115107;28;20192;-68
2022/03/12 03:16:58;;;;;;;6.75;6.15;;;;;;;-2.04;64.66;95810.72;5115432;28;20180;-68
2022/03/12 03:19:26;;;;;;;6.70;6.20;;;;;;;-2.13;64.86;95812.28;5114845;28;20188;-68
2022/03/12 03:21:54;;;;;;;6.63;6.13;;;;;;;-2.14;64.62;95804.41;5115198;28;20200;-68
2022/03/12 03:24:21;;;;;;;6.85;6.25;;;;;;;-2.11;65.15;95804.72;5115300;28;20296;-68
2022/03/12 03:26:54;;;;;;;7.13;6.60;;;;;;;-2.10;64.79;95810.97;5115080;28;20184;-68
2022/03/12 03:29:23;;;;;;;7.00;6.50;;;;;;;-2.14;64.32;95812.50;5114917;28;20194;-68
2022/03/12 03:31:50;;;;;;;7.25;6.65;;;;;;;-2.16;63.83;95811.97;5117474;28;20275;-68
2022/03/12 03:34:18;;;;;;;7.30;6.70;;;;;;;-2.19;64.51;95814.09;5101199;28;20206;-68
2022/03/12 03:36:45;;;;;;;7.28;6.57;;;;;;;-2.17;64.36;95805.75;5101223;28;20214;-67
2022/03/12 03:39:11;;;;;;;7.28;6.70;;;;;;;-2.23;64.93;95814.88;5118729;28;20188;-67
2022/03/12 03:41:38;;;;;;;7.82;7.10;;;;;;;-2.24;64.86;95811.34;5118614;28;20180;-68
2022/03/12 03:44:06;;;;;;;7.60;7.00;;;;;;;-2.20;65.14;95817.88;5100593;28;20250;-69
2022/03/12 03:46:35;;;;;;;6.93;6.43;;;;;;;-2.15;64.86;95816.31;5118375;28;20198;-69
2022/03/12 03:49:02;;;;;;;7.88;7.18;;;;;;;-2.15;64.27;95819.81;5118329;28;20200;-69
2022/03/12 03:51:29;;;;;;;6.93;6.43;;;;;;;-2.15;64.33;95821.69;5100569;28;20241;-69
2022/03/12 03:53:56;;;;;;;7.63;7.03;;;;;;;-2.16;64.25;95829.00;5118589;28;20176;-69
2022/03/12 03:56:23;;;;;;;10.15;9.32;;;;;;;-2.25;64.45;95820.53;5118453;28;20190;-69
2022/03/12 03:58:50;;;;;;;8.75;8.05;;;;;;;-2.25;64.51;95827.81;5118490;28;20187;-69
2022/03/12 04:01:21;;;;;;;9.15;8.45;;;;;;;-2.25;64.51;95833.22;5100016;28;20199;-69
2022/03/12 04:03:51;;;;;;;9.40;8.60;;;;;;;-2.20;64.67;95823.28;5100765;28;20298;-69
2022/03/12 04:06:20;;;;;;;10.27;9.38;;;;;;;-2.16;64.21;95830.88;5118241;28;20187;-69
2022/03/12 04:08:48;;;;;;;10.00;9.20;;;;;;;-2.24;64.22;95824.88;5118256;28;20217;-69
2022/03/12 04:11:16;;;;;;;10.13;9.32;;;;;;;-2.30;64.10;95827.75;5118033;28;20180;-68
2022/03/12 04:13:43;;;;;;;12.50;11.32;;;;;;;-2.31;64.75;95829.66;5117940;28;20180;-68
2022/03/12 04:16:10;;;;;;;11.40;10.40;;;;;;;-2.31;64.25;95826.13;5117965;28;20190;-67
2022/03/12 04:18:39;;;;;;;10.55;9.65;;;;;;;-2.37;64.14;95833.34;5100724;28;20199;-68
2022/03/12 04:21:08;;;;;;;9.27;8.57;;;;;;;-2.40;64.48;95831.16;5099898;28;20195;-68
2022/03/12 04:23:35;;;;;;;8.98;8.27;;;;;;;-2.45;64.48;95842.72;5099605;28;20643;-67
2022/03/12 04:26:02;;;;;;;9.15;8.35;;;;;;;-2.44;63.98;95838.94;5099434;28;20207;-68
2022/03/12 04:28:32;;;;;;;8.73;8.02;;;;;;;-2.41;64.32;95840.34;5099753;28;20222;-68
2022/03/12 04:31:00;;;;;;;8.45;7.75;;;;;;;-2.46;64.04;95845.69;5117825;28;20188;-68
2022/03/12 04:33:28;;;;;;;8.85;8.07;;;;;;;-2.53;64.34;95850.47;5099360;28;20508;-68
2022/03/12 04:35:56;;;;;;;10.00;9.20;;;;;;;-2.61;64.28;95849.03;5117527;28;20200;-68
2022/03/12 04:38:25;;;;;;;10.05;9.23;;;;;;;-2.61;63.93;95851.72;5117482;28;20215;-68
2022/03/12 04:40:53;;;;;;;9.07;8.38;;;;;;;-2.61;64.11;95853.63;5099580;28;20290;-68
2022/03/12 04:43:21;;;;;;;8.88;8.18;;;;;;;-2.67;63.92;95861.63;5099375;28;20223;-68
2022/03/12 04:45:49;;;;;;;9.43;8.57;;;;;;;-2.69;64.38;95866.47;5099167;28;20200;-68
2022/03/12 04:48:18;;;;;;;8.45;7.75;;;;;;;-2.79;64.72;95868.22;5116951;28;20225;-67
2022/03/12 04:50:45;;;;;;;9.10;8.40;;;;;;;-2.81;65.00;95865.75;5117214;28;20195;-67
2022/03/12 04:53:12;;;;;;;8.35;7.75;;;;;;;-2.80;65.12;95872.78;5099156;28;20210;-67
2022/03/12 04:55:41;;;;;;;9.35;8.55;;;;;;;-2.74;64.27;95868.28;5116847;28;20187;-67
2022/03/12 04:58:09;;;;;;;9.15;8.40;;;;;;;-2.75;64.49;95872.06;5099185;28;20291;-68
2022/03/12 05:00:38;;;;;;;9.73;8.93;;;;;;;-2.76;64.82;95871.25;5099284;28;20256;-67
2022/03/12 05:03:08;;;;;;;10.40;9.50;;;;;;;-2.82;64.80;95879.50;5116772;28;20528;-68
2022/03/12 05:05:35;;;;;;;9.50;8.70;;;;;;;-2.87;64.78;95874.84;5117216;28;20552;-67
2022/03/12 05:08:01;;;;;;;9.20;8.48;;;;;;;-2.83;64.66;95881.41;5098902;28;20211;-68
2022/03/12 05:10:29;;;;;;;9.25;8.35;;;;;;;-2.80;64.40;95888.97;5099135;28;20208;-68
2022/03/12 05:13:00;;;;;;;9.05;8.35;;;;;;;-2.78;64.29;95888.75;5117057;28;20188;-68
2022/03/12 05:15:37;;;;;;;10.40;9.48;;;;;;;-2.76;64.10;95887.44;5117178;28;20198;-68
2022/03/12 05:18:06;;;;;;;10.38;9.48;;;;;;;-2.84;64.31;95889.72;5117650;28;20266;-68
2022/03/12 05:20:35;;;;;;;11.25;10.30;;;;;;;-2.88;64.43;95889.41;5116928;28;20198;-68
2022/03/12 05:23:02;;;;;;;12.10;11.00;;;;;;;-2.93;64.58;95894.75;5099006;28;20199;-68
2022/03/12 05:25:30;;;;;;;9.55;8.80;;;;;;;-2.89;64.81;95900.47;5116857;28;20195;-68
2022/03/12 05:27:59;;;;;;;9.77;8.98;;;;;;;-2.85;64.19;95909.72;5098678;28;20226;-68
2022/03/12 05:30:27;;;;;;;10.23;9.32;;;;;;;-2.79;63.98;95909.53;5116682;28;20249;-68
2022/03/12 05:32:55;;;;;;;10.43;9.52;;;;;;;-2.74;64.23;95917.69;5116439;28;20219;-68
2022/03/12 05:35:22;;;;;;;8.65;7.95;;;;;;;-2.75;63.83;95907.16;5116636;28;20191;-68
2022/03/12 05:37:50;;;;;;;8.75;8.05;;;;;;;-2.75;63.60;95904.47;5116875;28;20180;-68
2022/03/12 05:40:19;;;;;;;8.40;7.78;;;;;;;-2.72;63.64;95915.59;5098868;28;20218;-68
2022/03/12 05:42:47;;;;;;;8.32;7.63;;;;;;;-2.67;63.66;95920.22;5098326;28;20200;-68
2022/03/12 05:45:18;;;;;;;9.00;8.20;;;;;;;-2.58;63.40;95920.59;5098336;28;20567;-68
2022/03/12 05:47:45;;;;;;;9.10;8.30;;;;;;;-2.61;63.61;95934.63;5097876;28;20248;-68
2022/03/12 05:50:14;;;;;;;8.63;7.93;;;;;;;-2.64;63.33;95938.63;5116071;28;20194;-68
2022/03/12 05:52:45;;;;;;;8.88;8.18;;;;;;;-2.63;63.47;95936.75;5116270;28;20190;-68
2022/03/12 05:55:12;;;;;;;8.75;7.95;;;;;;;-2.62;63.55;95936.50;5115439;28;20188;-68
2022/03/12 05:57:39;;;;;;;9.70;8.80;;;;;;;-2.56;63.11;95932.00;5116108;28;20245;-68
2022/03/12 06:00:11;;;;;;;9.48;8.77;;;;;;;-2.51;62.77;95934.75;5115945;28;20190;-67
2022/03/12 06:02:41;;;;;;;10.57;9.68;;;;;;;-2.44;62.60;95938.91;5098062;28;20206;-68
2022/03/12 06:05:14;;;;;;;11.13;10.23;;;;;;;-2.53;62.51;95940.41;5115685;28;20529;-68
2022/03/12 06:07:43;;;;;;;10.57;9.70;;;;;;;-2.57;62.58;95949.28;5097911;28;20238;-68
2022/03/12 06:10:11;;;;;;;11.80;10.82;;;;;;;-2.57;62.52;95950.09;5115622;28;20610;-68
2022/03/12 06:12:43;;;;;;;12.48;11.38;;;;;;;-2.56;62.55;95950.91;5098192;28;20222;-68
2022/03/12 06:15:11;;;;;;;12.07;11.05;;;;;;;-2.54;62.85;95954.16;5115384;28;20620;-68
2022/03/12 06:17:39;;;;;;;13.35;12.25;;;;;;;-2.53;62.56;95961.22;5115825;28;20202;-68
2022/03/12 06:20:10;;;;;;;16.02;14.63;;;;;;;-2.54;62.66;95956.84;5115740;28;20195;-68
2022/03/12 06:22:37;;;;;;;13.57;12.38;;;;;;;-2.46;62.67;95959.16;5097884;28;20187;-67
2022/03/12 06:25:06;;;;;;;15.02;13.82;;;;;;;-2.41;62.75;95964.63;5097352;28;20543;-66
2022/03/12 06:27:33;;;;;;;19.33;17.52;;;;;;;-2.36;62.42;95964.72;5097128;28;20504;-68
2022/03/12 06:29:59;;;;;;;18.60;16.83;;;;;;;-2.32;61.56;95960.44;5114531;28;20429;-69
2022/03/12 06:32:26;;;;;;;16.90;15.18;;;;;;;-2.27;62.13;95959.66;5097723;28;20203;-66
2022/03/12 06:34:54;;;;;;;17.95;16.45;;;;;;;-2.21;61.88;95966.78;5115566;28;20184;-68
2022/03/12 06:37:21;;;;;;;16.42;15.02;;;;;;;-2.20;61.52;95976.53;5115403;28;20206;-68
2022/03/12 06:39:48;;;;;;;16.80;15.30;;;;;;;-2.16;60.65;95976.84;5115590;28;20212;-69
2022/03/12 06:42:15;;;;;;;16.85;15.35;;;;;;;-2.12;59.33;95977.97;5097768;28;20203;-68
2022/03/12 06:44:42;;;;;;;18.08;16.48;;;;;;;-2.12;59.65;95983.38;5097366;28;20602;-68
2022/03/12 06:47:09;;;;;;;14.00;12.80;;;;;;;-2.03;60.74;95990.81;5097496;28;20256;-68
2022/03/12 06:49:37;;;;;;;15.75;14.35;;;;;;;-1.97;60.37;95987.09;5097599;28;20302;-68
2022/03/12 06:52:06;;;;;;;18.85;17.13;;;;;;;-1.89;59.14;95991.22;5098031;28;20195;-68
2022/03/12 06:54:35;;;;;;;18.70;17.15;;;;;;;-1.86;59.21;95995.31;5097453;28;20194;-68
2022/03/12 06:57:03;;;;;;;20.52;18.70;;;;;;;-1.80;58.80;95984.31;5115422;28;20195;-68
2022/03/12 06:59:30;;;;;;;18.52;16.83;;;;;;;-1.72;59.00;95988.47;5097373;28;20200;-68
2022/03/12 07:01:57;;;;;;;16.90;15.40;;;;;;;-1.64;57.66;95988.00;5114793;28;20188;-68
2022/03/12 07:04:24;;;;;;;17.67;16.23;;;;;;;-1.55;58.34;95996.50;5097746;28;20207;-68
2022/03/12 07:06:51;;;;;;;16.30;14.90;;;;;;;-1.51;56.70;95993.03;5099974;28;20522;-68
2022/03/12 07:09:19;;;;;;;15.77;14.48;;;;;;;-1.50;57.17;95997.38;5101191;28;20220;-68
2022/03/12 07:11:46;;;;;;;15.40;14.18;;;;;;;-1.42;57.14;95996.09;5119250;28;20180;-68
2022/03/12 07:14:13;;;;;;;15.35;14.15;;;;;;;-1.35;56.61;96001.31;5101048;28;20195;-68
2022/03/12 07:16:40;;;;;;;13.63;12.52;;;;;;;-1.32;55.07;96000.81;5101476;28;20200;-68
2022/03/12 07:19:07;;;;;;;14.35;13.15;;;;;;;-1.37;54.92;96006.19;5101246;28;20210;-68
2022/03/12 07:21:34;;;;;;;14.20;13.02;;;;;;;-1.39;54.84;96011.84;5118669;28;20183;-68
2022/03/12 07:24:01;;;;;;;15.00;13.73;;;;;;;-1.49;54.86;96011.72;5119156;28;20274;-68
2022/03/12 07:26:29;;;;;;;13.73;12.63;;;;;;;-1.52;55.81;96009.53;5101087;28;20286;-68
2022/03/12 07:28:55;;;;;;;12.25;11.18;;;;;;;-1.54;55.02;96014.38;5119197;28;20204;-68
2022/03/12 07:31:22;;;;;;;12.35;11.25;;;;;;;-1.56;54.53;96013.78;5100965;28;20199;-68
2022/03/12 07:33:49;;;;;;;11.70;10.70;;;;;;;-1.55;53.03;96021.69;5101499;28;20199;-68
2022/03/12 07:36:16;;;;;;;11.00;10.10;;;;;;;-1.48;52.61;96029.59;5119044;28;20180;-68
2022/03/12 07:38:43;;;;;;;10.98;9.98;;;;;;;-1.35;51.72;96031.09;5118751;28;20184;-68
2022/03/12 07:41:10;;;;;;;10.85;9.98;;;;;;;-1.16;51.07;96028.84;5100719;28;20261;-67
2022/03/12 07:43:38;;;;;;;11.82;10.80;;;;;;;-1.05;50.14;96027.91;5110151;28;20243;-68
2022/03/12 07:46:05;;;;;;;10.35;9.50;;;;;;;-1.03;49.38;96034.66;5098246;28;20195;-68
2022/03/12 07:48:32;;;;;;;10.00;9.13;;;;;;;-1.01;49.34;96029.81;5098311;28;20204;-67
2022/03/12 07:51:01;;;;;;;11.55;10.45;;;;;;;-0.83;51.24;96025.13;5080327;28;20218;-68
2022/03/12 07:53:28;;;;;;;11.80;10.80;;;;;;;-0.68;50.58;96029.84;5079891;28;20200;-67
2022/03/12 07:55:55;;;;;;;9.30;8.40;;;;;;;-0.66;47.80;96028.50;5080686;28;20197;-67
2022/03/12 07:58:22;;;;;;;9.38;8.57;;;;;;;-0.74;46.28;96021.66;5080488;28;20192;-67
2022/03/12 08:00:50;;;;;;;9.43;8.63;;;;;;;-0.78;47.63;96030.56;5080884;28;20201;-68
2022/03/12 08:03:23;;;;;;;9.85;8.85;;;;;;;-0.61;47.06;96025.03;5080165;28;20222;-68
2022/03/12 08:05:50;;;;;;;13.90;12.73;;;;;;;-0.91;46.23;96029.09;5080325;28;20220;-67
2022/03/12 08:08:17;;;;;;;9.30;8.60;;;;;;;-1.14;44.63;96030.22;5080018;28;20239;-68
2022/03/12 08:13:29;;;;;;;11.07;10.10;;;;;;;-1.02;46.32;96024.66;5079549;28;20196;-67
2022/03/12 08:15:57;;;;;;;12.32;11.23;;;;;;;-0.99;45.78;96030.38;5080128;28;20199;-68
2022/03/12 08:18:24;;;;;;;8.63;7.68;;;;;;;-0.65;47.70;96038.28;5079824;28;20235;-69
2022/03/12 08:20:52;;;;;;;10.23;9.32;;;;;;;-0.50;48.27;96032.16;5097529;28;20184;-68
2022/03/12 08:23:18;;;;;;;8.25;7.55;;;;;;;-0.42;48.65;96031.69;5079702;28;20215;-72
2022/03/12 08:25:45;;;;;;;8.32;7.63;;;;;;;-0.40;46.83;96036.81;5097437;28;20196;-68
2022/03/12 08:28:14;;;;;;;7.72;7.03;;;;;;;-0.64;48.44;96044.50;5097297;28;20518;-68
2022/03/12 08:30:41;;;;;;;8.05;7.28;;;;;;;-0.38;50.49;96049.03;5097310;28;20192;-68
2022/03/12 08:33:10;;;;;;;6.30;5.90;;;;;;;-0.55;45.12;96043.75;5079054;28;20637;-69
2022/03/12 08:35:36;;;;;;;6.60;6.00;;;;;;;-0.51;46.66;96044.91;5079084;28;20196;-69
2022/03/12 08:38:04;;;;;;;7.07;6.38;;;;;;;-0.38;46.35;96046.34;5079974;28;20192;-68
2022/03/12 08:40:31;;;;;;;7.03;6.43;;;;;;;-0.33;46.17;96035.56;5097079;28;20189;-69
2022/03/12 08:42:58;;;;;;;6.70;6.15;;;;;;;-0.26;46.12;96043.44;5097012;28;20306;-68
2022/03/12 08:45:25;;;;;;;6.80;6.22;;;;;;;-0.20;43.98;96042.41;5079143;28;20196;-68
2022/03/12 08:47:52;;;;;;;7.38;6.78;;;;;;;-0.11;46.07;96042.72;5096988;28;20192;-67
2022/03/12 08:50:20;;;;;;;8.60;7.90;;;;;;;-0.11;45.78;96043.56;5096475;28;20208;-68
2022/03/12 08:52:47;;;;;;;6.47;6.03;;;;;;;-0.62;44.53;96045.06;5096927;28;20193;-68
2022/03/12 08:55:14;;;;;;;7.82;7.13;;;;;;;-0.40;46.18;96040.38;5096661;28;20196;-67
2022/03/12 08:57:41;;;;;;;7.07;6.47;;;;;;;-0.15;47.79;96036.19;5096770;28;20206;-68
2022/03/12 09:00:10;;;;;;;9.35;8.38;;;;;;;0.01;47.86;96045.25;5079078;28;20203;-68
2022/03/12 09:02:38;;;;;;;9.52;8.70;;;;;;;0.05;45.69;96043.66;5078980;28;20518;-68
2022/03/12 09:05:06;;;;;;;7.65;7.05;;;;;;;0.12;46.79;96042.31;5078867;28;20526;-69
2022/03/12 09:07:35;;;;;;;7.70;7.10;;;;;;;0.27;46.18;96035.34;5078449;28;20602;-68
2022/03/12 09:10:02;;;;;;;8.52;7.72;;;;;;;0.21;46.58;96045.34;5079147;28;20665;-65
2022/03/12 09:12:29;;;;;;;7.97;7.28;;;;;;;-0.05;45.38;96044.38;5096087;28;20436;-67
2022/03/12 09:14:56;;;;;;;7.57;6.88;;;;;;;-0.18;45.57;96039.41;5078831;28;20211;-67
2022/03/12 09:17:23;;;;;;;7.68;7.05;;;;;;;-0.07;45.50;96047.38;5095627;28;20430;-68
2022/03/12 09:19:49;;;;;;;7.32;6.65;;;;;;;0.08;45.71;96052.06;5096472;28;20181;-68
2022/03/12 09:22:16;;;;;;;10.13;9.13;;;;;;;0.20;46.07;96051.88;5096296;28;20189;-68
2022/03/12 09:24:44;;;;;;;8.77;7.90;;;;;;;0.26;45.66;96055.44;5096228;28;20195;-68
2022/03/12 09:27:11;;;;;;;7.70;7.07;;;;;;;0.26;45.65;96055.44;5096087;28;20193;-68
2022/03/12 09:29:38;;;;;;;7.90;7.30;;;;;;;0.27;43.48;96054.34;5095404;28;20222;-67
2022/03/12 09:32:06;;;;;;;8.15;7.35;;;;;;;0.20;43.05;96051.88;5078565;28;20200;-67
2022/03/12 09:34:34;;;;;;;7.88;7.20;;;;;;;0.24;43.77;96056.50;5096014;28;20434;-67
2022/03/12 09:37:01;;;;;;;7.88;7.18;;;;;;;0.33;44.34;96056.00;5078311;28;20217;-66
2022/03/12 09:39:28;;;;;;;7.50;6.85;;;;;;;0.38;44.39;96050.59;5095936;28;20189;-66
2022/03/12 09:41:56;;;;;;;7.03;6.45;;;;;;;0.45;43.12;96048.47;5095423;28;20426;-67
2022/03/12 09:44:23;;;;;;;8.30;7.60;;;;;;;0.50;42.55;96051.19;5092722;28;20237;-67
2022/03/12 09:46:50;;;;;;;13.45;12.05;;;;;;;0.49;42.09;96041.41;5098660;28;20200;-66
2022/03/12 09:49:17;;;;;;;10.27;9.40;;;;;;;0.28;41.52;96040.50;5116295;28;20292;-67
2022/03/12 09:51:44;;;;;;;10.40;9.40;;;;;;;0.14;41.76;96036.63;5098499;28;20191;-67
2022/03/12 09:54:11;;;;;;;9.77;8.77;;;;;;;0.10;42.05;96039.06;5116123;28;20241;-67
2022/03/12 09:56:38;;;;;;;6.57;5.93;;;;;;;0.36;43.86;96029.13;5098303;28;20287;-67
2022/03/12 09:59:06;;;;;;;7.90;7.20;;;;;;;0.74;44.43;96037.16;5115743;28;20521;-66
2022/03/12 10:01:33;;;;;;;6.05;5.53;;;;;;;1.19;45.31;96036.44;5115957;28;20257;-66
2022/03/12 10:04:00;;;;;;;6.70;6.15;;;;;;;1.48;41.10;96030.47;5098185;28;20655;-66
2022/03/12 10:06:30;;;;;;;8.40;7.70;;;;;;;1.19;41.14;96033.72;5116185;28;20180;-73
2022/03/12 10:08:57;;;;;;;7.38;6.78;;;;;;;0.56;40.15;96035.75;5098157;28;20199;-66
2022/03/12 10:11:24;;;;;;;7.03;6.43;;;;;;;0.62;41.42;96037.41;5116100;28;20184;-66
2022/03/12 10:13:51;;;;;;;9.15;8.35;;;;;;;0.68;42.02;96039.84;5115879;28;20191;-66
2022/03/12 10:16:19;;;;;;;9.52;8.73;;;;;;;0.65;41.59;96034.97;5115218;28;20428;-67
2022/03/12 10:18:46;;;;;;;8.48;7.78;;;;;;;0.67;41.74;96040.13;5114688;28;20774;-66
2022/03/12 10:21:13;;;;;;;7.97;7.28;;;;;;;0.34;40.99;96036.75;5097858;28;20210;-67
2022/03/12 10:23:39;;;;;;;11.68;10.77;;;;;;;0.43;42.43;96034.31;5098183;28;20208;-67
2022/03/12 10:26:07;;;;;;;10.43;9.52;;;;;;;0.63;42.06;96033.59;5115286;28;20866;-66
2022/03/12 10:28:36;;;;;;;8.90;8.15;;;;;;;0.79;41.18;96026.31;5097501;28;20294;-66
2022/03/12 10:31:05;;;;;;;7.70;7.10;;;;;;;0.91;41.45;96021.47;5117565;28;20263;-66
2022/03/12 10:33:34;;;;;;;7.50;6.90;;;;;;;0.90;40.40;96017.91;5115773;28;20428;-65
2022/03/12 10:36:11;;;;;;;7.33;6.80;;;;;;;0.98;40.77;96024.75;5116321;28;20249;-66
2022/03/12 10:38:40;;;;;;;7.45;6.85;;;;;;;1.05;41.61;96019.03;5098010;28;20188;-65
2022/03/12 10:41:07;;;;;;;6.95;6.35;;;;;;;1.13;40.71;96018.50;5102494;28;20195;-65
2022/03/12 10:43:44;;;;;;;7.50;6.90;;;;;;;1.12;40.36;96016.84;5104119;28;20433;-67
2022/03/12 10:46:14;;;;;;;7.20;6.60;;;;;;;1.07;39.98;96016.88;5104241;28;20251;-66
2022/03/12 10:48:42;;;;;;;8.20;7.50;;;;;;;1.07;40.80;96017.69;5122576;28;20199;-66
2022/03/12 10:51:10;;;;;;;8.73;7.95;;;;;;;1.09;41.38;96012.81;5104398;28;20218;-66
2022/03/12 10:53:37;;;;;;;8.95;8.25;;;;;;;1.04;41.19;96018.22;5121938;28;20179;-67
2022/03/12 10:56:06;;;;;;;9.98;8.60;;;;;;;1.00;42.47;96019.03;5104599;28;20199;-66
2022/03/12 10:58:33;;;;;;;8.73;8.02;;;;;;;0.88;43.10;96008.41;5122280;28;20180;-66
2022/03/12 11:01:02;;;;;;;8.13;7.47;;;;;;;0.96;43.83;96013.31;5104211;28;20223;-66
2022/03/12 11:03:30;;;;;;;8.70;7.95;;;;;;;1.39;44.81;96009.28;5104453;28;20223;-66
2022/03/12 11:05:59;;;;;;;10.25;9.25;;;;;;;1.59;41.87;96002.19;5121737;28;20176;-66
2022/03/12 11:08:27;;;;;;;8.15;7.38;;;;;;;1.72;41.08;96000.84;5122128;28;20184;-66
2022/03/12 11:10:57;;;;;;;8.02;7.32;;;;;;;1.78;40.38;95997.00;5121998;28;20208;-66
2022/03/12 11:13:40;;;;;;;10.25;9.35;;;;;;;1.69;42.02;95991.31;5103700;28;20208;-66
2022/03/12 11:16:22;;;;;;;8.50;7.78;;;;;;;1.54;41.21;96002.22;5104469;28;20202;-66
2022/03/12 11:19:07;;;;;;;8.52;7.85;;;;;;;1.61;42.24;95991.88;5104108;28;20223;-66
2022/03/12 11:21:37;;;;;;;8.30;7.57;;;;;;;1.74;39.57;95987.75;5121737;28;20442;-67
2022/03/12 11:24:06;;;;;;;8.18;7.47;;;;;;;1.87;40.38;95992.66;5121589;28;20216;-67
2022/03/12 11:26:45;;;;;;;7.75;7.15;;;;;;;1.88;39.93;95989.63;5121888;28;20188;-67
2022/03/12 11:29:13;;;;;;;8.27;7.60;;;;;;;1.76;41.66;95980.16;5121765;28;20186;-67
2022/03/12 11:31:46;;;;;;;7.47;6.88;;;;;;;2.22;42.15;95975.41;5121540;28;20485;-67
2022/03/12 11:34:20;;;;;;;7.25;6.75;;;;;;;2.82;40.56;95973.47;5121007;28;20730;-66
2022/03/12 11:37:00;;;;;;;7.40;6.90;;;;;;;3.17;38.52;95968.09;5104221;28;20199;-66